Time;durP1;ratioP1;P1;durP2;ratioP2;P2;SDS_P1;SDS_P2;PMS_P1;PMS_P2;Temp;Humidity;BMP_temperature;BMP_pressure;BME280_temperature;BME280_humidity;BME280_pressure;Samples;Min_cycle;Max_cycle;Signal;HPM_P1;HPM_P2
2023/09/02 00:03:24;;;;;;;;;;;17.80;99.90;;;;;;8381960;28;19924;-69
2023/09/02 00:07:26;;;;;;;;;;;17.80;99.90;;;;;;8360401;28;19986;-68
2023/09/02 00:11:27;;;;;;;;;;;17.70;99.90;;;;;;8378521;28;19933;-69
2023/09/02 00:15:29;;;;;;;;;;;17.70;99.90;;;;;;8357518;28;20375;-69
2023/09/02 00:19:31;;;;;;;;;;;17.70;99.90;;;;;;8376440;28;20418;-69
2023/09/02 00:23:32;;;;;;;;;;;17.60;99.90;;;;;;8380972;28;20295;-70
2023/09/02 00:27:34;;;;;;;;;;;17.60;99.90;;;;;;8379761;28;20288;-69
2023/09/02 00:31:36;;;;;;;;;;;17.60;99.90;;;;;;8378949;28;19949;-69
2023/09/02 00:35:38;;;;;;;;;;;17.60;99.90;;;;;;8380583;28;19975;-69
2023/09/02 00:39:39;;;;;;;;;;;17.60;99.90;;;;;;8380107;28;19935;-70
2023/09/02 00:43:41;;;;;;;;;;;17.60;99.90;;;;;;8380133;28;19936;-69
2023/09/02 00:47:43;;;;;;;;;;;17.60;99.90;;;;;;8379069;28;19933;-69
2023/09/02 00:51:45;;;;;;;;;;;17.60;99.90;;;;;;8368551;28;20322;-69
2023/09/02 00:55:47;;;;;;;;;;;17.50;99.90;;;;;;8380216;28;19985;-69
2023/09/02 00:59:48;;;;;;;;;;;17.50;99.90;;;;;;8379354;28;19928;-69
2023/09/02 01:03:50;;;;;;;;;;;17.40;99.90;;;;;;8368072;28;19925;-69
2023/09/02 01:07:52;;;;;;;;;;;17.30;99.90;;;;;;8381929;28;19960;-69
2023/09/02 01:11:54;;;;;;;;;;;17.30;99.90;;;;;;8375659;28;19924;-69
2023/09/02 01:15:56;;;;;;;;;;;17.20;99.90;;;;;;8379730;28;19928;-69
2023/09/02 01:19:59;;;;;;;;;;;17.20;99.90;;;;;;8363652;28;20292;-69
2023/09/02 01:24:00;;;;;;;;;;;17.10;99.90;;;;;;8379612;28;20623;-69
2023/09/02 01:28:10;;;;;;;;;;;17.10;99.90;;;;;;8371474;28;19924;-69
2023/09/02 01:32:12;;;;;;;;;;;17.10;99.90;;;;;;8378016;28;19925;-69
2023/09/02 01:36:17;;;;;;;;;;;17.10;99.90;;;;;;8374349;28;19969;-69
2023/09/02 01:40:25;;;;;;;;;;;17.20;99.90;;;;;;8377573;28;19969;-69
2023/09/02 01:44:28;;;;;;;;;;;17.10;99.90;;;;;;8379518;28;20322;-69
2023/09/02 01:48:30;;;;;;;;;;;17.10;99.90;;;;;;8354517;28;19944;-69
2023/09/02 01:52:33;;;;;;;;;;;17.10;99.90;;;;;;8370496;28;19925;-69
2023/09/02 01:56:35;;;;;;;;;;;17.20;99.90;;;;;;8352177;28;19925;-69
2023/09/02 02:00:38;;;;;;;;;;;17.20;99.90;;;;;;8374097;28;19925;-69
2023/09/02 02:04:42;;;;;;;;;;;17.20;99.90;;;;;;8372314;28;20565;-69
2023/09/02 02:08:55;;;;;;;;;;;17.20;99.90;;;;;;8368364;28;20141;-69
2023/09/02 02:13:01;;;;;;;;;;;17.10;99.90;;;;;;8375026;28;19975;-69
2023/09/02 02:17:04;;;;;;;;;;;17.10;99.90;;;;;;8377676;28;19924;-69
2023/09/02 02:21:07;;;;;;;;;;;17.10;99.90;;;;;;8376674;28;19947;-69
2023/09/02 02:25:09;;;;;;;;;;;17.10;99.90;;;;;;8379750;28;19928;-69
2023/09/02 02:44:21;;;;;;;;;;;17.00;99.90;;;;;;8374949;28;19995;-69
2023/09/02 02:48:26;;;;;;;;;;;17.00;99.90;;;;;;8375005;28;19924;-69
2023/09/02 02:52:27;;;;;;;;;;;17.00;99.90;;;;;;8371427;28;20372;-69
2023/09/02 02:56:29;;;;;;;;;;;17.00;99.90;;;;;;8376054;28;20047;-69
2023/09/02 03:00:30;;;;;;;;;;;17.00;99.90;;;;;;8375249;28;20005;-69
2023/09/02 03:04:32;;;;;;;;;;;17.00;99.90;;;;;;8378136;28;19972;-69
2023/09/02 03:08:34;;;;;;;;;;;17.10;99.90;;;;;;8373363;28;19950;-69
2023/09/02 03:12:36;;;;;;;;;;;17.10;99.90;;;;;;8375840;28;20015;-69
2023/09/02 03:16:38;;;;;;;;;;;17.10;99.90;;;;;;8377411;28;19939;-69
2023/09/02 03:20:39;;;;;;;;;;;17.20;99.90;;;;;;8375489;28;19970;-69
2023/09/02 03:24:41;;;;;;;;;;;17.20;99.90;;;;;;8373458;28;19935;-69
2023/09/02 03:28:43;;;;;;;;;;;17.20;99.90;;;;;;8355735;28;19935;-69
2023/09/02 03:32:45;;;;;;;;;;;17.20;99.90;;;;;;8373007;28;20295;-69
2023/09/02 03:36:47;;;;;;;;;;;17.20;99.90;;;;;;8373770;28;19976;-69
2023/09/02 03:40:48;;;;;;;;;;;17.20;99.90;;;;;;8371397;28;19977;-69
2023/09/02 03:44:50;;;;;;;;;;;17.20;99.90;;;;;;8349136;28;19939;-69
2023/09/02 03:48:52;;;;;;;;;;;17.20;99.90;;;;;;8368774;28;19931;-69
2023/09/02 03:52:54;;;;;;;;;;;17.20;99.90;;;;;;8359724;28;19925;-69
2023/09/02 03:56:56;;;;;;;;;;;17.20;99.90;;;;;;8372136;28;19925;-69
2023/09/02 04:00:57;;;;;;;;;;;17.20;99.90;;;;;;8376777;28;19925;-69
2023/09/02 04:05:01;;;;;;;;;;;17.20;99.90;;;;;;8353928;28;19924;-69
2023/09/02 04:09:05;;;;;;;;;;;17.20;99.90;;;;;;8372094;28;19924;-69
2023/09/02 04:13:06;;;;;;;;;;;17.20;99.90;;;;;;8374782;28;19925;-69
2023/09/02 04:17:08;;;;;;;;;;;17.20;99.90;;;;;;8373016;28;19979;-69
2023/09/02 04:21:10;;;;;;;;;;;17.10;99.90;;;;;;8383539;28;19925;-69
2023/09/02 04:25:12;;;;;;;;;;;17.10;99.90;;;;;;8380479;28;20379;-69
2023/09/02 04:29:14;;;;;;;;;;;17.10;99.90;;;;;;8384395;28;19928;-69
2023/09/02 04:33:16;;;;;;;;;;;17.10;99.90;;;;;;8375943;28;19951;-69
2023/09/02 04:37:18;;;;;;;;;;;17.10;99.90;;;;;;8369702;28;19932;-69
2023/09/02 04:41:20;;;;;;;;;;;17.10;99.90;;;;;;8373190;28;20367;-69
2023/09/02 05:00:55;;;;;;;;;;;17.10;99.90;;;;;;8371913;28;19967;-69
2023/09/02 05:04:56;;;;;;;;;;;17.10;99.90;;;;;;8373460;28;19924;-69
2023/09/02 05:08:58;;;;;;;;;;;17.10;99.90;;;;;;8375654;28;20021;-69
2023/09/02 05:13:00;;;;;;;;;;;17.10;99.90;;;;;;8380944;28;20402;-69
2023/09/02 05:17:02;;;;;;;;;;;17.10;99.90;;;;;;8381586;28;20572;-69
2023/09/02 05:21:03;;;;;;;;;;;17.10;99.90;;;;;;8381208;28;19956;-69
2023/09/02 05:25:05;;;;;;;;;;;17.10;99.90;;;;;;8379207;28;19924;-69
2023/09/02 05:29:07;;;;;;;;;;;17.10;99.90;;;;;;8371457;28;19928;-69
2023/09/02 05:33:09;;;;;;;;;;;17.00;99.90;;;;;;8377454;28;19928;-69
2023/09/02 05:37:10;;;;;;;;;;;17.00;99.90;;;;;;8376925;28;19924;-69
2023/09/02 05:41:12;;;;;;;;;;;17.00;99.90;;;;;;8378597;28;20284;-69
2023/09/02 05:45:14;;;;;;;;;;;17.00;99.90;;;;;;8375626;28;19935;-69
2023/09/02 05:49:15;;;;;;;;;;;17.00;99.90;;;;;;8377408;28;19924;-70
2023/09/02 05:53:17;;;;;;;;;;;17.00;99.90;;;;;;8382446;28;19932;-69
2023/09/02 05:57:19;;;;;;;;;;;16.90;99.90;;;;;;8375485;28;19932;-69
2023/09/02 06:01:21;;;;;;;;;;;16.90;99.90;;;;;;8378737;28;19982;-69
2023/09/02 06:05:23;;;;;;;;;;;16.80;99.90;;;;;;8372442;28;19928;-69
2023/09/02 06:09:26;;;;;;;;;;;16.80;99.90;;;;;;8376491;28;20407;-69
2023/09/02 06:13:28;;;;;;;;;;;16.80;99.90;;;;;;8364966;28;20308;-69
2023/09/02 06:17:31;;;;;;;;;;;16.80;99.90;;;;;;8371613;28;19924;-69
2023/09/02 06:21:33;;;;;;;;;;;16.80;99.90;;;;;;8349469;28;19928;-69
2023/09/02 06:25:35;;;;;;;;;;;16.80;99.90;;;;;;8378736;28;19924;-69
2023/09/02 06:29:37;;;;;;;;;;;16.80;99.90;;;;;;8368618;28;19925;-69
2023/09/02 06:33:39;;;;;;;;;;;16.80;99.90;;;;;;8378115;28;20359;-69
2023/09/02 06:37:41;;;;;;;;;;;16.90;99.90;;;;;;8371559;28;19924;-69
2023/09/02 06:41:43;;;;;;;;;;;16.90;99.90;;;;;;8371637;28;20390;-69
2023/09/02 06:45:46;;;;;;;;;;;16.90;99.90;;;;;;8373097;28;19965;-70
2023/09/02 06:49:47;;;;;;;;;;;16.90;99.90;;;;;;8377972;28;19930;-69
2023/09/02 06:53:49;;;;;;;;;;;16.90;99.90;;;;;;8372214;28;20005;-69
2023/09/02 06:57:51;;;;;;;;;;;17.00;99.90;;;;;;8375212;28;19970;-70
2023/09/02 07:01:52;;;;;;;;;;;17.00;99.90;;;;;;8378369;28;20280;-70
2023/09/02 07:06:02;;;;;;;;;;;17.00;99.90;;;;;;8376436;28;19971;-70
2023/09/02 07:10:04;;;;;;;;;;;17.00;99.90;;;;;;8377121;28;19940;-70
2023/09/02 07:14:08;;;;;;;;;;;17.10;99.90;;;;;;8373348;28;19935;-69
2023/09/02 07:18:09;;;;;;;;;;;17.10;99.90;;;;;;8376105;28;19928;-70
2023/09/02 07:22:11;;;;;;;;;;;17.10;99.90;;;;;;8374683;28;19933;-70
2023/09/02 07:26:13;;;;;;;;;;;17.20;99.90;;;;;;8374274;28;19975;-70
2023/09/02 07:30:14;;;;;;;;;;;17.20;99.90;;;;;;8371040;28;19932;-70
2023/09/02 07:34:16;;;;;;;;;;;17.20;99.90;;;;;;8369692;28;19937;-69
2023/09/02 07:38:18;;;;;;;;;;;17.20;99.90;;;;;;8375761;28;20036;-70
2023/09/02 07:42:19;;;;;;;;;;;17.20;99.90;;;;;;8373994;28;19939;-70
2023/09/02 07:46:21;;;;;;;;;;;17.20;99.90;;;;;;8370306;28;19941;-70
2023/09/02 07:50:22;;;;;;;;;;;17.20;99.90;;;;;;8352467;28;19948;-69
2023/09/02 07:54:24;;;;;;;;;;;17.30;99.90;;;;;;8385785;28;20350;-69
2023/09/02 07:58:29;;;;;;;;;;;17.30;99.90;;;;;;8362127;28;19932;-70
2023/09/02 08:02:30;;;;;;;;;;;17.30;99.90;;;;;;8379517;28;19929;-72
2023/09/02 08:06:32;;;;;;;;;;;17.40;99.90;;;;;;8381314;28;20425;-72
2023/09/02 08:10:34;;;;;;;;;;;17.40;99.90;;;;;;8371324;28;20443;-72
2023/09/02 08:14:38;;;;;;;;;;;17.50;99.90;;;;;;8378958;28;20398;-72
2023/09/02 08:18:40;;;;;;;;;;;17.50;99.90;;;;;;8375580;28;19967;-72
2023/09/02 08:22:43;;;;;;;;;;;17.60;99.90;;;;;;8378822;28;19955;-72
2023/09/02 08:26:44;;;;;;;;;;;17.60;99.90;;;;;;8383914;28;19933;-72
2023/09/02 08:30:46;;;;;;;;;;;17.60;99.90;;;;;;8378832;28;19931;-72
2023/09/02 08:34:48;;;;;;;;;;;17.70;99.90;;;;;;8374637;28;20408;-72
2023/09/02 08:38:51;;;;;;;;;;;17.70;99.90;;;;;;8371826;28;19978;-72
2023/09/02 08:42:53;;;;;;;;;;;17.80;99.90;;;;;;8368510;28;20226;-72
2023/09/02 08:46:56;;;;;;;;;;;17.80;99.90;;;;;;8374193;28;19929;-72
2023/09/02 08:50:57;;;;;;;;;;;17.90;99.90;;;;;;8370646;28;19939;-72
2023/09/02 08:55:00;;;;;;;;;;;17.90;99.90;;;;;;8380205;28;20363;-72
2023/09/02 08:59:02;;;;;;;;;;;18.00;99.90;;;;;;8369441;28;19925;-72
2023/09/02 09:03:05;;;;;;;;;;;18.00;99.90;;;;;;8347477;28;19925;-72
2023/09/02 09:07:08;;;;;;;;;;;18.00;99.90;;;;;;8378458;28;19982;-73
2023/09/02 09:11:10;;;;;;;;;;;18.10;99.90;;;;;;8388418;28;20387;-72
2023/09/02 09:15:12;;;;;;;;;;;18.10;99.90;;;;;;8377762;28;19994;-72
2023/09/02 09:19:15;;;;;;;;;;;18.20;99.90;;;;;;8376125;28;19974;-73
2023/09/02 09:23:16;;;;;;;;;;;18.20;99.90;;;;;;8375254;28;19994;-72
2023/09/02 09:27:18;;;;;;;;;;;18.20;99.90;;;;;;8373664;28;20397;-72
2023/09/02 09:31:20;;;;;;;;;;;18.20;99.90;;;;;;8373209;28;20269;-73
2023/09/02 09:35:22;;;;;;;;;;;18.20;99.90;;;;;;8376308;28;19935;-72
2023/09/02 09:39:36;;;;;;;;;;;18.20;99.90;;;;;;8379459;28;20031;-72
2023/09/02 09:43:38;;;;;;;;;;;18.30;99.90;;;;;;8375276;28;19928;-73
2023/09/02 09:47:41;;;;;;;;;;;18.30;99.90;;;;;;8373964;28;19951;-73
2023/09/02 09:51:43;;;;;;;;;;;18.30;99.90;;;;;;8376500;28;20384;-72
2023/09/02 09:55:45;;;;;;;;;;;18.20;99.90;;;;;;8378642;28;20277;-72
2023/09/02 09:59:51;;;;;;;;;;;18.20;99.90;;;;;;8388711;28;19991;-72
2023/09/02 10:03:55;;;;;;;;;;;18.30;99.90;;;;;;8371268;28;20283;-72
2023/09/02 10:08:03;;;;;;;;;;;18.30;99.90;;;;;;8387665;28;19955;-72
2023/09/02 10:12:09;;;;;;;;;;;18.30;99.90;;;;;;8372600;28;19932;-72
2023/09/02 10:16:11;;;;;;;;;;;18.30;99.90;;;;;;8362795;28;19924;-72
2023/09/02 10:20:12;;;;;;;;;;;18.30;99.90;;;;;;8373724;28;19925;-72
2023/09/02 10:24:14;;;;;;;;;;;18.30;99.90;;;;;;8365094;28;19982;-72
2023/09/02 10:28:17;;;;;;;;;;;18.30;99.90;;;;;;8362060;28;19925;-72
2023/09/02 10:32:21;;;;;;;;;;;18.40;99.90;;;;;;8365496;28;19947;-73
2023/09/02 10:36:25;;;;;;;;;;;18.40;99.90;;;;;;8367111;28;20448;-72
2023/09/02 10:40:27;;;;;;;;;;;18.40;99.90;;;;;;8371723;28;20382;-73
2023/09/02 10:44:29;;;;;;;;;;;18.40;99.90;;;;;;8366540;28;19959;-72
2023/09/02 10:48:31;;;;;;;;;;;18.50;99.90;;;;;;8373024;28;19932;-72
2023/09/02 10:52:33;;;;;;;;;;;18.50;99.90;;;;;;8376634;28;19978;-72
2023/09/02 10:56:35;;;;;;;;;;;18.50;99.90;;;;;;8373341;28;20299;-73
2023/09/02 11:00:45;;;;;;;;;;;18.40;99.90;;;;;;8380316;28;19958;-72
2023/09/02 11:04:53;;;;;;;;;;;18.50;99.90;;;;;;8372289;28;19924;-72
2023/09/02 11:08:54;;;;;;;;;;;18.50;99.90;;;;;;8376831;28;20384;-72
2023/09/02 11:12:59;;;;;;;;;;;18.60;99.90;;;;;;8376495;28;19924;-73
2023/09/02 11:17:19;;;;;;;;;;;18.60;99.90;;;;;;8387176;28;19978;-72
2023/09/02 11:21:42;;;;;;;;;;;18.70;99.90;;;;;;8360361;28;19928;-73
2023/09/02 11:25:44;;;;;;;;;;;18.80;99.90;;;;;;8374524;28;19929;-73
2023/09/02 11:29:46;;;;;;;;;;;18.80;99.90;;;;;;8374254;28;19935;-73
2023/09/02 11:33:48;;;;;;;;;;;18.90;99.90;;;;;;8373300;28;19928;-73
2023/09/02 11:37:49;;;;;;;;;;;19.00;99.90;;;;;;8376248;28;19932;-73
2023/09/02 11:42:06;;;;;;;;;;;19.10;99.90;;;;;;8353098;28;19925;-73
2023/09/02 11:46:09;;;;;;;;;;;19.10;99.90;;;;;;8374431;28;19924;-73
2023/09/02 11:50:13;;;;;;;;;;;19.20;99.90;;;;;;8372506;28;20026;-73
2023/09/02 11:54:16;;;;;;;;;;;19.30;99.90;;;;;;8370948;28;20295;-73
2023/09/02 11:58:19;;;;;;;;;;;19.30;99.90;;;;;;8372220;28;19945;-73
2023/09/02 12:07:23;;;;;;;;;;;19.30;99.90;;;;;;8375062;28;20065;-73
2023/09/02 12:11:25;;;;;;;;;;;19.40;99.90;;;;;;8376067;28;20018;-73
2023/09/02 12:15:31;;;;;;;;;;;19.50;99.90;;;;;;8372233;28;19933;-72
2023/09/02 12:34:19;;;;;;;;;;;19.60;99.90;;;;;;8376159;28;20383;-73
2023/09/02 12:43:28;;;;;;;;;;;19.70;99.90;;;;;;8383172;28;19923;-73
2023/09/02 13:13:19;;;;;;;;;;;20.10;99.90;;;;;;8383142;28;19939;-70
2023/09/02 13:17:23;;;;;;;;;;;20.20;99.90;;;;;;8378372;28;19928;-70
2023/09/02 13:21:25;;;;;;;;;;;20.30;99.90;;;;;;8381261;28;20332;-70
2023/09/02 13:25:26;;;;;;;;;;;20.30;99.90;;;;;;8381130;28;19983;-70
2023/09/02 13:29:28;;;;;;;;;;;20.30;99.90;;;;;;8379440;28;20390;-70
2023/09/02 13:33:30;;;;;;;;;;;20.20;99.90;;;;;;8369928;28;19928;-70
2023/09/02 13:37:32;;;;;;;;;;;20.30;99.90;;;;;;8378683;28;20371;-70
2023/09/02 13:41:33;;;;;;;;;;;20.40;99.90;;;;;;8377898;28;20694;-70
2023/09/02 13:45:36;;;;;;;;;;;20.50;99.90;;;;;;8373204;28;20291;-70
2023/09/02 13:49:38;;;;;;;;;;;20.60;99.90;;;;;;8375892;28;19943;-70
2023/09/02 13:53:40;;;;;;;;;;;20.70;99.90;;;;;;8379986;28;19925;-70
2023/09/02 13:57:43;;;;;;;;;;;20.80;99.90;;;;;;8379287;28;19925;-70
2023/09/02 14:01:45;;;;;;;;;;;21.00;99.90;;;;;;8369900;28;20020;-70
2023/09/02 14:05:47;;;;;;;;;;;21.00;99.90;;;;;;8366913;28;19978;-70
2023/09/02 14:09:49;;;;;;;;;;;21.00;99.90;;;;;;8372630;28;19925;-70
2023/09/02 14:13:52;;;;;;;;;;;21.00;99.90;;;;;;8374499;28;19928;-70
2023/09/02 14:17:53;;;;;;;;;;;21.00;99.90;;;;;;8367373;28;19947;-70
2023/09/02 14:21:55;;;;;;;;;;;20.90;99.90;;;;;;8380665;28;19932;-70
2023/09/02 14:25:57;;;;;;;;;;;20.80;99.90;;;;;;8375978;28;19931;-70
2023/09/02 14:29:58;;;;;;;;;;;20.80;99.90;;;;;;8369693;28;19924;-70
2023/09/02 14:34:00;;;;;;;;;;;20.80;99.90;;;;;;8370516;28;20368;-70
2023/09/02 14:38:01;;;;;;;;;;;20.80;99.90;;;;;;8353981;28;19937;-70
2023/09/02 14:42:04;;;;;;;;;;;20.90;99.90;;;;;;8368078;28;20002;-70
2023/09/02 14:46:07;;;;;;;;;;;21.10;99.90;;;;;;8371044;28;19929;-70
2023/09/02 14:50:09;;;;;;;;;;;21.20;99.90;;;;;;8364603;28;19951;-70
2023/09/02 14:54:11;;;;;;;;;;;21.40;99.90;;;;;;8376671;28;19951;-70
2023/09/02 14:58:14;;;;;;;;;;;21.50;99.90;;;;;;8369797;28;19924;-70
2023/09/02 15:02:27;;;;;;;;;;;21.60;99.90;;;;;;8369565;28;20279;-70
2023/09/02 15:06:32;;;;;;;;;;;21.80;99.90;;;;;;8379290;28;19929;-70
2023/09/02 15:20:41;;;;;;;;;;;22.10;99.90;;;;;;8373007;28;19932;-70
2023/09/02 15:24:42;;;;;;;;;;;22.00;99.90;;;;;;8378579;28;19924;-70
2023/09/02 15:28:44;;;;;;;;;;;21.90;99.90;;;;;;8377802;28;19928;-70
2023/09/02 15:32:53;;;;;;;;;;;22.00;99.90;;;;;;8346724;28;20011;-70
2023/09/02 15:47:08;;;;;;;;;;;22.50;99.90;;;;;;8342385;28;19935;-70
2023/09/02 15:51:10;;;;;;;;;;;22.50;99.90;;;;;;8362076;28;19925;-70
2023/09/02 15:55:12;;;;;;;;;;;22.60;99.90;;;;;;8366657;28;19925;-70
2023/09/02 15:59:14;;;;;;;;;;;22.80;99.90;;;;;;8364230;28;19947;-70
2023/09/02 16:08:20;;;;;;;;;;;23.20;99.90;;;;;;8378879;28;19919;-70
2023/09/02 16:28:00;;;;;;;;;;;23.20;99.90;;;;;;8383867;28;19919;-71
2023/09/02 16:32:02;;;;;;;;;;;23.40;99.90;;;;;;8378389;28;19971;-70
2023/09/02 16:46:11;;;;;;;;;;;23.00;99.90;;;;;;8375783;28;20312;-70
2023/09/02 16:50:14;;;;;;;;;;;22.60;99.90;;;;;;8374654;28;19932;-70
2023/09/02 16:54:16;;;;;;;;;;;22.40;99.90;;;;;;8383217;28;19925;-70
2023/09/02 16:58:18;;;;;;;;;;;22.30;99.90;;;;;;8378081;28;19925;-70
2023/09/02 17:02:24;;;;;;;;;;;22.20;99.90;;;;;;8370226;28;19947;-70
2023/09/02 17:06:32;;;;;;;;;;;22.10;99.90;;;;;;8365810;28;19924;-70
2023/09/02 17:10:34;;;;;;;;;;;22.10;99.90;;;;;;8367187;28;19925;-70
2023/09/02 17:14:36;;;;;;;;;;;22.00;99.90;;;;;;8381165;28;20438;-70
2023/09/02 17:18:38;;;;;;;;;;;22.10;99.90;;;;;;8383290;28;19934;-70
2023/09/02 17:22:41;;;;;;;;;;;22.00;99.90;;;;;;8370886;28;20269;-70
2023/09/02 17:26:42;;;;;;;;;;;22.00;99.90;;;;;;8369840;28;20303;-70
2023/09/02 17:30:44;;;;;;;;;;;21.90;99.90;;;;;;8350775;28;20000;-70
2023/09/02 17:34:46;;;;;;;;;;;21.80;99.90;;;;;;8367047;28;20020;-70
2023/09/02 17:38:48;;;;;;;;;;;21.70;99.90;;;;;;8363407;28;19986;-70
2023/09/02 17:42:49;;;;;;;;;;;21.60;99.90;;;;;;8358320;28;20264;-70
2023/09/02 17:46:51;;;;;;;;;;;21.40;99.90;;;;;;8369503;28;19928;-70
2023/09/02 17:50:53;;;;;;;;;;;21.30;99.90;;;;;;8376430;28;19924;-71
2023/09/02 17:54:55;;;;;;;;;;;21.20;99.90;;;;;;8354127;28;19939;-71
2023/09/02 17:58:57;;;;;;;;;;;21.00;99.90;;;;;;8372530;28;19928;-70
2023/09/02 18:02:59;;;;;;;;;;;20.90;99.90;;;;;;8378946;28;19924;-70
2023/09/02 18:07:02;;;;;;;;;;;20.80;99.90;;;;;;8354821;28;19924;-70
2023/09/02 18:11:03;;;;;;;;;;;20.70;99.90;;;;;;8370534;28;19977;-70
2023/09/02 18:15:06;;;;;;;;;;;20.70;99.90;;;;;;8370302;28;20314;-70
2023/09/02 18:19:07;;;;;;;;;;;20.50;99.90;;;;;;8366405;28;19924;-70
2023/09/02 18:23:10;;;;;;;;;;;20.40;99.90;;;;;;8372411;28;20414;-70
2023/09/02 18:27:12;;;;;;;;;;;20.30;99.90;;;;;;8375519;28;20342;-70
2023/09/02 18:31:14;;;;;;;;;;;20.30;99.90;;;;;;8375370;28;19929;-70
2023/09/02 18:35:16;;;;;;;;;;;20.10;99.90;;;;;;8362511;28;19959;-70
2023/09/02 18:39:20;;;;;;;;;;;20.10;99.90;;;;;;8368087;28;19947;-70
2023/09/02 18:43:22;;;;;;;;;;;20.10;99.90;;;;;;8372096;28;19925;-70
2023/09/02 18:47:24;;;;;;;;;;;20.00;99.90;;;;;;8369301;28;19931;-70
2023/09/02 18:51:25;;;;;;;;;;;20.00;99.90;;;;;;8362808;28;20291;-71
2023/09/02 18:55:27;;;;;;;;;;;19.90;99.90;;;;;;8369449;28;19928;-70
2023/09/02 18:59:29;;;;;;;;;;;19.90;99.90;;;;;;8368683;28;20343;-70
2023/09/02 19:03:31;;;;;;;;;;;19.90;99.90;;;;;;8370585;28;19924;-70
2023/09/02 19:07:33;;;;;;;;;;;19.80;99.90;;;;;;8366702;28;19925;-70
2023/09/02 19:11:35;;;;;;;;;;;19.80;99.90;;;;;;8371636;28;19940;-70
2023/09/02 19:15:36;;;;;;;;;;;19.80;99.90;;;;;;8370661;28;19931;-70
2023/09/02 19:19:38;;;;;;;;;;;19.70;99.90;;;;;;8363979;28;19932;-70
2023/09/02 19:23:40;;;;;;;;;;;19.70;99.90;;;;;;8382997;28;20372;-70
2023/09/02 19:27:42;;;;;;;;;;;19.60;99.90;;;;;;8367581;28;19924;-70
2023/09/02 19:31:44;;;;;;;;;;;19.60;99.90;;;;;;8364046;28;19976;-70
2023/09/02 19:40:49;;;;;;;;;;;19.50;99.90;;;;;;8361596;28;19962;-70
2023/09/02 19:44:51;;;;;;;;;;;19.40;99.90;;;;;;8360679;28;19968;-70
2023/09/02 19:48:52;;;;;;;;;;;19.30;99.90;;;;;;8363072;28;20347;-70
2023/09/02 19:52:54;;;;;;;;;;;19.20;99.90;;;;;;8370926;28;19935;-70
2023/09/02 19:56:56;;;;;;;;;;;19.10;99.90;;;;;;8368420;28;19929;-70
2023/09/02 20:00:57;;;;;;;;;;;19.00;99.90;;;;;;8354018;28;19932;-70
2023/09/02 20:04:59;;;;;;;;;;;19.00;99.90;;;;;;8372075;28;20433;-70
2023/09/02 20:09:01;;;;;;;;;;;19.00;99.90;;;;;;8380418;28;19925;-70
2023/09/02 20:13:02;;;;;;;;;;;19.00;99.90;;;;;;8382226;28;19924;-70
2023/09/02 20:17:04;;;;;;;;;;;18.90;99.90;;;;;;8370284;28;20379;-70
2023/09/02 20:21:06;;;;;;;;;;;18.80;99.90;;;;;;8374703;28;19929;-70
2023/09/02 20:25:07;;;;;;;;;;;18.80;99.90;;;;;;8382058;28;19924;-70
2023/09/02 20:29:09;;;;;;;;;;;18.70;99.90;;;;;;8378881;28;19940;-70
2023/09/02 20:33:11;;;;;;;;;;;18.70;99.90;;;;;;8375255;28;19978;-70
2023/09/02 20:37:12;;;;;;;;;;;18.70;99.90;;;;;;8378011;28;19978;-70
2023/09/02 20:41:15;;;;;;;;;;;18.70;99.90;;;;;;8372772;28;19997;-70
2023/09/02 20:45:17;;;;;;;;;;;18.60;99.90;;;;;;8357277;28;20360;-70
2023/09/02 20:49:18;;;;;;;;;;;18.60;99.90;;;;;;8377609;28;19933;-70
2023/09/02 20:53:20;;;;;;;;;;;18.60;99.90;;;;;;8390020;28;19932;-70
2023/09/02 20:57:22;;;;;;;;;;;18.50;99.90;;;;;;8370672;28;19932;-70
2023/09/02 21:01:23;;;;;;;;;;;18.50;99.90;;;;;;8367797;28;20202;-70
2023/09/02 21:05:25;;;;;;;;;;;18.50;99.90;;;;;;8377134;28;20415;-70
2023/09/02 21:09:27;;;;;;;;;;;18.50;99.90;;;;;;8380372;28;19925;-70
2023/09/02 21:13:28;;;;;;;;;;;18.40;99.90;;;;;;8363623;28;20380;-69
2023/09/02 21:17:30;;;;;;;;;;;18.40;99.90;;;;;;8372317;28;20272;-70
2023/09/02 21:21:32;;;;;;;;;;;18.30;99.90;;;;;;8352929;28;19939;-70
2023/09/02 21:25:33;;;;;;;;;;;18.30;99.90;;;;;;8382402;28;19929;-70
2023/09/02 21:29:35;;;;;;;;;;;18.30;99.90;;;;;;8375781;28;19929;-70
2023/09/02 21:33:37;;;;;;;;;;;18.30;99.90;;;;;;8376659;28;19924;-70
2023/09/02 21:37:39;;;;;;;;;;;18.30;99.90;;;;;;8373082;28;19925;-70
2023/09/02 21:41:41;;;;;;;;;;;18.30;99.90;;;;;;8380936;28;19924;-70
2023/09/02 21:45:43;;;;;;;;;;;18.30;99.90;;;;;;8368687;28;19925;-70
2023/09/02 21:49:48;;;;;;;;;;;18.20;99.90;;;;;;8378241;28;19928;-70
2023/09/02 21:53:53;;;;;;;;;;;18.20;99.90;;;;;;8379641;28;19928;-70
2023/09/02 21:57:55;;;;;;;;;;;18.20;99.90;;;;;;8371946;28;20291;-70
2023/09/02 22:01:56;;;;;;;;;;;18.20;99.90;;;;;;8379843;28;19929;-70
2023/09/02 22:21:08;;;;;;;;;;;18.10;99.90;;;;;;8368802;28;19928;-70
2023/09/02 22:25:10;;;;;;;;;;;18.00;99.90;;;;;;8371702;28;19936;-69
2023/09/02 22:29:13;;;;;;;;;;;18.00;99.90;;;;;;8379490;28;22649;-69
2023/09/02 22:33:15;;;;;;;;;;;17.90;99.90;;;;;;8372135;28;19939;-69
2023/09/02 22:37:19;;;;;;;;;;;17.90;99.90;;;;;;8373314;28;19947;-70
2023/09/02 22:41:20;;;;;;;;;;;17.80;99.90;;;;;;8379903;28;19928;-70
2023/09/02 22:45:23;;;;;;;;;;;17.80;99.90;;;;;;8379932;28;19967;-70
2023/09/02 22:49:28;;;;;;;;;;;17.80;99.90;;;;;;8368858;28;19962;-70
2023/09/02 22:53:30;;;;;;;;;;;17.80;99.90;;;;;;8371590;28;19928;-70
2023/09/02 22:57:31;;;;;;;;;;;17.80;99.90;;;;;;8385844;28;19925;-69
2023/09/02 23:01:33;;;;;;;;;;;17.70;99.90;;;;;;8356351;28;19929;-69
2023/09/02 23:05:35;;;;;;;;;;;17.70;99.90;;;;;;8375057;28;19924;-70
2023/09/02 23:09:36;;;;;;;;;;;17.60;99.90;;;;;;8374776;28;19931;-70
2023/09/02 23:13:38;;;;;;;;;;;17.60;99.90;;;;;;8370767;28;19925;-70
2023/09/02 23:17:40;;;;;;;;;;;17.50;99.90;;;;;;8379387;28;20391;-70
2023/09/02 23:21:41;;;;;;;;;;;17.30;99.90;;;;;;8380423;28;19936;-70
2023/09/02 23:25:50;;;;;;;;;;;17.10;99.90;;;;;;8370522;28;19932;-69
2023/09/02 23:29:53;;;;;;;;;;;17.00;99.90;;;;;;8347751;28;19924;-69
2023/09/02 23:33:54;;;;;;;;;;;16.90;99.90;;;;;;8373748;28;20071;-70
2023/09/02 23:37:56;;;;;;;;;;;16.80;99.90;;;;;;8370702;28;19931;-69
2023/09/02 23:41:58;;;;;;;;;;;16.80;99.90;;;;;;8367494;28;19925;-69
2023/09/02 23:46:00;;;;;;;;;;;16.70;99.90;;;;;;8376543;28;19933;-69
2023/09/02 23:50:03;;;;;;;;;;;16.80;99.90;;;;;;8371893;28;19924;-70
2023/09/02 23:54:05;;;;;;;;;;;16.80;99.90;;;;;;8373986;28;19990;-69
2023/09/02 23:58:06;;;;;;;;;;;16.80;99.90;;;;;;8375361;28;20388;-69
